Terminal Aerodrome Forecast
Issued by NWS Paducah, KY

Home | Current Version | Previous Version | Text Only | Print | Product List | Glossary On
Versions: 1 2 3 4 5 6 7 8 9 10 11 12 13 14 15 16 17 18 19
436
FTUS43 KPAH 130536
TAFPAH
TAF
KPAH 130536Z 1306/1406 35010KT P6SM SCT200
     FM131500 02008KT P6SM BKN150
     FM140000 07007KT P6SM BKN070=

USA.gov is the U.S. government's official web portal to all federal, state and local government web resources and services.